Time;durP1;ratioP1;P1;durP2;ratioP2;P2;SDS_P1;SDS_P2;PMS_P1;PMS_P2;Temp;Humidity;BMP_temperature;BMP_pressure;BME280_temperature;BME280_humidity;BME280_pressure;Samples;Min_cycle;Max_cycle;Signal;HPM_P1;HPM_P2
2023/02/15 00:00:14;;;;;;;31.20;17.47;;;;;;;;;;5016919;28;20612;-91
2023/02/15 00:02:40;;;;;;;25.30;16.53;;;;;;;;;;5017177;28;20176;-89
2023/02/15 00:05:07;;;;;;;49.47;17.80;;;;;;;;;;5020238;28;20183;-89
2023/02/15 00:07:33;;;;;;;51.73;16.37;;;;;;;;;;5018639;28;20414;-88
2023/02/15 00:09:59;;;;;;;22.17;16.27;;;;;;;;;;5025165;28;20410;-91
2023/02/15 00:12:25;;;;;;;41.83;17.67;;;;;;;;;;5016929;28;20262;-90
2023/02/15 00:14:51;;;;;;;29.13;17.50;;;;;;;;;;5025569;28;20531;-90
2023/02/15 00:17:17;;;;;;;30.13;16.27;;;;;;;;;;5025624;28;20429;-90
2023/02/15 00:19:43;;;;;;;196.40;24.00;;;;;;;;;;5016876;28;20178;-90
2023/02/15 00:22:09;;;;;;;55.33;19.57;;;;;;;;;;5025420;28;20426;-90
2023/02/15 00:24:35;;;;;;;43.90;19.37;;;;;;;;;;5034319;28;20280;-89
2023/02/15 00:27:01;;;;;;;29.03;16.87;;;;;;;;;;5019090;28;20422;-90
2023/02/15 00:29:27;;;;;;;25.57;16.47;;;;;;;;;;5034249;28;20588;-90
2023/02/15 00:31:53;;;;;;;22.17;16.27;;;;;;;;;;5025155;28;20418;-89
2023/02/15 00:34:21;;;;;;;24.53;15.53;;;;;;;;;;5016738;28;20414;-90
2023/02/15 00:36:47;;;;;;;56.80;17.37;;;;;;;;;;5008910;28;20457;-88
2023/02/15 00:39:13;;;;;;;38.77;15.63;;;;;;;;;;5016654;28;20431;-89
2023/02/15 00:41:40;;;;;;;21.17;14.80;;;;;;;;;;5016310;28;20267;-88
2023/02/15 00:44:06;;;;;;;22.23;15.30;;;;;;;;;;5016592;28;20250;-89
2023/02/15 00:46:32;;;;;;;20.37;15.00;;;;;;;;;;5031033;28;20415;-89
2023/02/15 00:48:58;;;;;;;23.37;15.50;;;;;;;;;;5018179;28;20612;-88
2023/02/15 00:51:24;;;;;;;35.90;15.80;;;;;;;;;;5019138;28;20406;-88
2023/02/15 00:53:50;;;;;;;19.90;14.33;;;;;;;;;;5016391;28;20175;-88
2023/02/15 00:56:16;;;;;;;18.77;13.80;;;;;;;;;;5016064;28;20456;-89
2023/02/15 00:58:42;;;;;;;21.47;14.47;;;;;;;;;;5016365;28;20431;-89
2023/02/15 01:01:10;;;;;;;21.67;15.10;;;;;;;;;;5024496;28;20664;-89
2023/02/15 01:03:36;;;;;;;18.77;13.53;;;;;;;;;;5016283;28;20523;-91
2023/02/15 01:06:02;;;;;;;19.73;14.40;;;;;;;;;;5024371;28;20411;-88
2023/02/15 01:08:28;;;;;;;19.43;14.53;;;;;;;;;;5024305;28;20198;-91
2023/02/15 01:10:54;;;;;;;19.37;13.70;;;;;;;;;;5033711;28;20498;-89
2023/02/15 01:13:20;;;;;;;17.53;12.53;;;;;;;;;;5024415;28;20440;-90
2023/02/15 01:15:46;;;;;;;60.40;15.93;;;;;;;;;;5016039;28;20506;-89
2023/02/15 01:18:12;;;;;;;17.40;12.67;;;;;;;;;;5033725;28;20407;-91
2023/02/15 01:20:41;;;;;;;19.13;13.43;;;;;;;;;;5015946;28;20518;-88
2023/02/15 01:23:07;;;;;;;17.87;12.37;;;;;;;;;;5016230;28;20523;-89
2023/02/15 01:25:34;;;;;;;19.13;13.57;;;;;;;;;;5035331;28;20418;-92
2023/02/15 01:28:00;;;;;;;18.43;13.60;;;;;;;;;;5028480;28;20412;-88
2023/02/15 01:30:26;;;;;;;19.43;13.83;;;;;;;;;;5044514;28;20418;-89
2023/02/15 01:32:52;;;;;;;18.37;13.43;;;;;;;;;;5041390;28;20468;-89
2023/02/15 01:35:18;;;;;;;19.00;13.63;;;;;;;;;;5025872;28;20171;-89
2023/02/15 01:37:44;;;;;;;128.67;16.73;;;;;;;;;;5034330;28;20172;-89
2023/02/15 01:40:16;;;;;;;47.47;16.70;;;;;;;;;;5031861;28;20414;-88
2023/02/15 01:42:42;;;;;;;21.87;14.27;;;;;;;;;;5023109;28;20187;-87
2023/02/15 01:45:21;;;;;;;17.97;13.33;;;;;;;;;;5021583;28;20972;-87
2023/02/15 01:47:50;;;;;;;18.40;13.33;;;;;;;;;;5019849;28;20168;-88
2023/02/15 01:50:39;;;;;;;19.70;13.63;;;;;;;;;;5053052;28;20493;-88
2023/02/15 01:53:05;;;;;;;18.87;14.00;;;;;;;;;;5009907;28;20430;-88
2023/02/15 01:55:37;;;;;;;17.27;12.73;;;;;;;;;;5037816;28;20488;-87
2023/02/15 01:58:03;;;;;;;17.70;12.70;;;;;;;;;;5025698;28;20168;-87
2023/02/15 02:00:30;;;;;;;18.63;13.23;;;;;;;;;;5021917;28;20500;-89
2023/02/15 02:02:57;;;;;;;31.10;14.80;;;;;;;;;;5014472;28;20420;-88
2023/02/15 02:05:23;;;;;;;17.70;13.07;;;;;;;;;;5020353;28;20509;-88
2023/02/15 02:07:51;;;;;;;18.97;13.63;;;;;;;;;;5016013;28;20406;-89
2023/02/15 02:10:18;;;;;;;20.87;13.47;;;;;;;;;;5019863;28;20759;-89
2023/02/15 02:12:45;;;;;;;20.43;13.13;;;;;;;;;;5033306;28;20399;-89
2023/02/15 02:15:11;;;;;;;18.27;13.33;;;;;;;;;;5023300;28;20414;-89
2023/02/15 02:17:37;;;;;;;81.20;15.53;;;;;;;;;;5014494;28;20926;-89
2023/02/15 02:20:10;;;;;;;102.10;18.10;;;;;;;;;;5023296;28;20504;-89
2023/02/15 02:22:51;;;;;;;19.27;13.93;;;;;;;;;;5023086;28;20170;-89
2023/02/15 02:25:17;;;;;;;23.80;13.87;;;;;;;;;;5022843;28;20922;-88
2023/02/15 02:28:00;;;;;;;98.00;17.53;;;;;;;;;;5022027;28;21358;-91
2023/02/15 02:30:26;;;;;;;73.50;16.37;;;;;;;;;;5023105;28;20497;-89
2023/02/15 02:33:01;;;;;;;21.20;13.60;;;;;;;;;;5033276;28;20508;-90
2023/02/15 02:35:36;;;;;;;200.63;20.93;;;;;;;;;;5034039;28;20402;-89
2023/02/15 02:38:05;;;;;;;29.50;14.07;;;;;;;;;;5024878;28;20414;-89
2023/02/15 02:40:47;;;;;;;29.03;14.27;;;;;;;;;;5024463;28;20431;-90
2023/02/15 02:43:19;;;;;;;170.70;21.20;;;;;;;;;;5024546;28;20457;-89
2023/02/15 02:45:53;;;;;;;160.37;18.53;;;;;;;;;;5023150;28;20430;-88
2023/02/15 02:48:21;;;;;;;85.83;17.10;;;;;;;;;;5022519;28;20402;-88
2023/02/15 02:50:47;;;;;;;92.10;16.37;;;;;;;;;;5014494;28;20493;-88
2023/02/15 02:53:13;;;;;;;17.90;12.33;;;;;;;;;;5014504;28;20415;-89
2023/02/15 02:55:47;;;;;;;17.13;12.07;;;;;;;;;;5021138;28;20183;-88
2023/02/15 02:58:25;;;;;;;17.07;12.77;;;;;;;;;;5017697;28;20418;-89
2023/02/15 03:01:15;;;;;;;16.83;11.13;;;;;;;;;;5022893;28;20794;-88
2023/02/15 03:03:46;;;;;;;114.77;17.13;;;;;;;;;;5029552;28;20539;-88
2023/02/15 03:06:19;;;;;;;180.20;21.47;;;;;;;;;;5014408;28;20472;-90
2023/02/15 03:08:47;;;;;;;19.33;13.87;;;;;;;;;;5014320;28;20415;-89
2023/02/15 03:11:13;;;;;;;290.60;23.33;;;;;;;;;;5014402;28;20419;-89
2023/02/15 03:13:39;;;;;;;21.80;12.20;;;;;;;;;;5017407;28;20418;-90
2023/02/15 03:19:11;;;;;;;114.17;17.53;;;;;;;;;;5036640;28;20433;-89
2023/02/15 03:21:42;;;;;;;17.40;12.90;;;;;;;;;;5017901;28;20414;-88
2023/02/15 03:24:10;;;;;;;17.97;12.67;;;;;;;;;;5018491;28;20846;-89
2023/02/15 03:26:36;;;;;;;49.77;14.97;;;;;;;;;;5017463;28;20422;-90
2023/02/15 03:29:04;;;;;;;30.03;13.33;;;;;;;;;;5018238;28;20418;-89
2023/02/15 03:31:32;;;;;;;140.60;19.67;;;;;;;;;;5035768;28;20468;-89
2023/02/15 03:34:01;;;;;;;15.97;12.00;;;;;;;;;;5019290;28;20537;-89
2023/02/15 03:36:42;;;;;;;16.33;11.97;;;;;;;;;;5021464;28;20421;-90
2023/02/15 03:39:11;;;;;;;16.07;12.00;;;;;;;;;;5020926;28;20418;-89
2023/02/15 03:41:39;;;;;;;17.03;12.77;;;;;;;;;;5026252;28;20418;-89
2023/02/15 03:44:11;;;;;;;57.00;15.97;;;;;;;;;;5017518;28;20493;-88
2023/02/15 03:46:40;;;;;;;25.33;12.80;;;;;;;;;;5017377;28;20427;-88
2023/02/15 03:49:09;;;;;;;16.40;12.07;;;;;;;;;;5019563;28;20472;-89
2023/02/15 03:51:38;;;;;;;24.00;12.07;;;;;;;;;;5020087;28;20763;-88
2023/02/15 04:02:40;;;;;;;17.80;12.47;;;;;;;;;;5035474;28;20465;-89
2023/02/15 04:05:06;;;;;;;24.77;12.57;;;;;;;;;;5019288;28;20454;-89
2023/02/15 04:07:32;;;;;;;17.23;12.10;;;;;;;;;;5020182;28;20890;-90
2023/02/15 04:12:47;;;;;;;22.87;13.20;;;;;;;;;;4962792;28;20209;-90
2023/02/15 04:17:58;;;;;;;15.83;11.07;;;;;;;;;;4947390;28;20228;-90
2023/02/15 04:25:52;;;;;;;62.03;14.50;;;;;;;;;;4953739;28;20751;-89
2023/02/15 04:28:18;;;;;;;18.90;11.47;;;;;;;;;;4935039;29;20415;-90
2023/02/15 04:30:44;;;;;;;14.27;11.23;;;;;;;;;;4936761;28;20195;-89
2023/02/15 04:33:10;;;;;;;33.70;13.10;;;;;;;;;;4942663;29;20289;-89
2023/02/15 04:35:36;;;;;;;13.83;10.80;;;;;;;;;;4935243;29;20411;-88
2023/02/15 04:38:02;;;;;;;17.53;12.27;;;;;;;;;;4934478;29;20442;-89
2023/02/15 04:40:28;;;;;;;15.00;11.40;;;;;;;;;;4942313;29;20628;-89
2023/02/15 04:42:54;;;;;;;14.37;10.90;;;;;;;;;;4953534;28;20429;-92
2023/02/15 04:45:20;;;;;;;15.57;12.27;;;;;;;;;;4934885;29;20223;-92
2023/02/15 04:47:46;;;;;;;16.17;12.40;;;;;;;;;;4938651;28;20570;-90
2023/02/15 04:50:12;;;;;;;13.90;11.17;;;;;;;;;;5003018;28;20498;-91
2023/02/15 04:52:38;;;;;;;14.93;11.43;;;;;;;;;;5024858;28;20183;-91
2023/02/15 04:55:04;;;;;;;14.33;11.13;;;;;;;;;;5016771;28;20422;-91
2023/02/15 04:57:30;;;;;;;14.80;11.80;;;;;;;;;;5024223;28;20505;-92
2023/02/15 04:59:58;;;;;;;31.07;12.70;;;;;;;;;;5024781;28;20410;-91
2023/02/15 05:02:24;;;;;;;20.97;11.70;;;;;;;;;;5020398;28;20431;-90
2023/02/15 05:04:50;;;;;;;15.17;11.47;;;;;;;;;;5017173;28;20466;-90
2023/02/15 05:07:17;;;;;;;20.23;12.00;;;;;;;;;;5033808;28;20572;-90
2023/02/15 05:09:43;;;;;;;14.77;11.53;;;;;;;;;;5015921;28;20496;-89
2023/02/15 05:12:09;;;;;;;15.47;11.27;;;;;;;;;;5015884;28;20443;-89
2023/02/15 05:14:35;;;;;;;15.20;10.87;;;;;;;;;;5033514;28;20176;-90
2023/02/15 05:17:03;;;;;;;15.90;11.47;;;;;;;;;;5033677;28;20180;-89
2023/02/15 05:19:28;;;;;;;14.70;11.20;;;;;;;;;;5033805;28;20172;-89
2023/02/15 05:21:55;;;;;;;14.60;11.10;;;;;;;;;;5034723;28;20417;-89
2023/02/15 05:29:50;;;;;;;13.30;10.40;;;;;;;;;;5033725;28;20460;-90
2023/02/15 05:32:16;;;;;;;18.03;11.83;;;;;;;;;;5023493;28;20472;-90
2023/02/15 05:34:42;;;;;;;14.03;10.57;;;;;;;;;;5021573;28;20423;-90
2023/02/15 05:37:08;;;;;;;27.13;12.23;;;;;;;;;;5015355;28;20171;-89
2023/02/15 05:39:34;;;;;;;14.50;11.60;;;;;;;;;;5033293;28;20406;-88
2023/02/15 05:42:01;;;;;;;19.70;12.30;;;;;;;;;;5015710;28;20488;-88
2023/02/15 05:44:27;;;;;;;13.97;10.93;;;;;;;;;;5019811;28;20741;-89
2023/02/15 05:46:53;;;;;;;13.63;10.93;;;;;;;;;;5020201;28;20415;-88
2023/02/15 05:49:19;;;;;;;14.87;10.93;;;;;;;;;;5014304;28;20194;-88
2023/02/15 05:51:45;;;;;;;15.87;11.87;;;;;;;;;;5015089;28;20175;-88
2023/02/15 05:54:11;;;;;;;14.93;11.93;;;;;;;;;;5016382;28;20207;-88
2023/02/15 05:56:37;;;;;;;15.10;11.93;;;;;;;;;;5023595;28;20176;-88
2023/02/15 05:59:03;;;;;;;17.53;11.77;;;;;;;;;;5016257;28;20414;-88
2023/02/15 06:01:29;;;;;;;25.43;12.20;;;;;;;;;;5020001;28;20521;-88
2023/02/15 06:03:55;;;;;;;27.70;14.43;;;;;;;;;;5016507;28;20234;-88
2023/02/15 06:06:21;;;;;;;18.83;13.10;;;;;;;;;;5015138;28;20199;-88
2023/02/15 06:08:47;;;;;;;19.40;11.80;;;;;;;;;;5014607;28;20446;-88
2023/02/15 06:11:13;;;;;;;20.43;12.67;;;;;;;;;;5015041;28;20477;-88
2023/02/15 06:13:39;;;;;;;16.87;12.37;;;;;;;;;;5023274;28;20199;-88
2023/02/15 06:16:06;;;;;;;18.73;12.20;;;2.70;99.90;;;;;;5014561;28;20449;-88
2023/02/15 06:18:32;;;;;;;101.10;17.17;;;;;;;;;;5014481;28;20171;-88
2023/02/15 06:20:58;;;;;;;24.53;14.43;;;;;;;;;;5014962;28;20476;-89
2023/02/15 06:23:24;;;;;;;15.53;11.73;;;;;;;;;;5014683;28;20208;-89
2023/02/15 06:25:50;;;;;;;16.77;12.00;;;;;;;;;;5014596;28;20414;-88
2023/02/15 06:28:16;;;;;;;22.10;11.80;;;;;;;;;;5011610;28;20608;-89
2023/02/15 06:30:42;;;;;;;70.83;15.13;;;;;;;;;;5030688;28;20171;-88
2023/02/15 06:33:08;;;;;;;20.10;12.50;;;;;;;;;;5010668;28;20556;-89
2023/02/15 06:35:34;;;;;;;55.00;13.70;;;;;;;;;;5014355;28;20449;-90
2023/02/15 06:43:56;;;;;;;31.53;16.97;;;;;;;;;;5041294;23;20461;-56
2023/02/15 06:46:22;;;;;;;16.23;11.43;;;;;;;;;;5047072;28;20443;-56
2023/02/15 06:48:48;;;;;;;16.53;11.73;;;;;;;;;;5052892;28;20420;-57
2023/02/15 06:51:14;;;;;;;40.27;14.73;;;;;;;;;;5057426;28;20203;-58
2023/02/15 06:53:42;;;;;;;16.37;12.27;;;;;;;;;;5057591;28;20210;-55
2023/02/15 06:56:09;;;;;;;30.50;12.70;;;2.50;99.90;;;;;;5054099;28;20194;-54
2023/02/15 06:58:39;;;;;;;26.27;12.90;;;2.10;99.90;;;;;;5056924;28;20548;-55
2023/02/15 07:01:05;;;;;;;35.03;12.83;;;;;;;;;;5038327;28;20449;-57
2023/02/15 07:03:31;;;;;;;31.10;13.67;;;;;;;;;;5052853;28;20526;-56
2023/02/15 07:05:59;;;;;;;19.10;12.67;;;2.60;99.90;;;;;;5057244;28;20413;-56
2023/02/15 07:08:25;;;;;;;62.10;15.87;;;2.30;99.90;;;;;;5039524;28;20475;-55
2023/02/15 07:10:52;;;;;;;39.87;13.70;;;;;;;;;;5057296;28;20437;-55
2023/02/15 07:13:19;;;;;;;20.67;13.20;;;;;;;;;;5057182;28;21104;-55
2023/02/15 07:15:45;;;;;;;16.40;11.67;;;;;;;;;;5057768;28;21188;-57
2023/02/15 07:18:11;;;;;;;22.97;13.20;;;;;;;;;;5038700;28;20533;-57
2023/02/15 07:20:37;;;;;;;17.73;12.70;;;;;;;;;;5038372;28;21026;-57
2023/02/15 07:23:04;;;;;;;16.40;11.70;;;2.60;99.90;;;;;;5054885;28;20519;-57
2023/02/15 07:25:30;;;;;;;22.13;12.77;;;;;;;;;;5058928;28;20479;-57
2023/02/15 07:28:01;;;;;;;16.17;11.60;;;2.90;99.90;;;;;;5055357;28;20449;-58
2023/02/15 07:30:27;;;;;;;19.37;12.77;;;;;;;;;;5057556;28;20531;-57
2023/02/15 07:35:48;;;;;;;18.93;12.37;;;;;;;;;;5053168;28;20425;-57
2023/02/15 07:38:14;;;;;;;30.77;13.93;;;;;;;;;;5057522;28;20423;-56
2023/02/15 07:40:40;;;;;;;17.43;12.27;;;;;;;;;;5057415;28;20504;-57
2023/02/15 07:43:06;;;;;;;20.47;13.23;;;;;;;;;;5056709;28;20178;-57
2023/02/15 07:45:32;;;;;;;24.93;12.83;;;;;;;;;;5062891;28;20242;-58
2023/02/15 07:47:58;;;;;;;18.53;12.90;;;;;;;;;;5061170;28;20175;-55
2023/02/15 07:50:24;;;;;;;20.80;14.07;;;;;;;;;;5057247;28;20195;-57
2023/02/15 07:52:49;;;;;;;19.90;13.57;;;3.00;99.90;;;;;;5057340;28;20533;-57
2023/02/15 07:55:15;;;;;;;20.00;13.17;;;;;;;;;;5057009;28;20202;-56
2023/02/15 07:57:46;;;;;;;17.43;12.83;;;3.30;99.90;;;;;;5056721;28;20625;-56
2023/02/15 08:00:13;;;;;;;17.87;12.13;;;;;;;;;;5053648;28;20191;-57
2023/02/15 08:02:39;;;;;;;24.23;13.77;;;;;;;;;;5054113;28;20900;-57
2023/02/15 08:05:05;;;;;;;25.50;16.63;;;;;;;;;;5053944;28;20551;-58
2023/02/15 08:07:31;;;;;;;19.87;14.03;;;;;;;;;;5053687;28;20410;-56
2023/02/15 08:09:56;;;;;;;17.73;12.87;;;3.50;99.90;;;;;;5053940;28;20417;-57
2023/02/15 08:12:22;;;;;;;22.80;12.87;;;;;;;;;;5054302;28;20183;-58
2023/02/15 08:14:48;;;;;;;34.50;14.87;;;;;;;;;;5053920;28;20207;-57
2023/02/15 08:17:14;;;;;;;63.27;17.00;;;3.30;99.90;;;;;;5053557;28;20179;-53
2023/02/15 08:19:40;;;;;;;19.23;13.23;;;;;;;;;;5053827;28;20424;-57
2023/02/15 08:22:10;;;;;;;23.77;17.53;;;2.90;99.90;;;;;;5053541;28;20195;-58
2023/02/15 08:24:37;;;;;;;23.10;14.27;;;2.90;99.90;;;;;;5053868;28;20249;-58
2023/02/15 08:27:04;;;;;;;25.97;14.80;;;2.60;99.90;;;;;;5053383;28;20409;-57
2023/02/15 08:29:30;;;;;;;21.87;14.67;;;2.80;99.90;;;;;;5053733;28;20780;-56
2023/02/15 08:32:05;;;;;;;19.40;13.67;;;3.40;99.90;;;;;;5053487;28;20444;-60
2023/02/15 08:34:33;;;;;;;20.77;13.67;;;3.00;99.90;;;;;;5052254;28;20505;-54
2023/02/15 08:36:59;;;;;;;20.03;13.10;;;3.10;99.90;;;;;;5053151;28;20554;-57
2023/02/15 08:39:25;;;;;;;21.97;14.07;;;;;;;;;;5053455;28;20413;-58
2023/02/15 08:41:51;;;;;;;18.83;13.87;;;;;;;;;;5053390;28;20199;-58
2023/02/15 08:44:18;;;;;;;24.10;14.50;;;;;;;;;;5053165;28;20290;-58
2023/02/15 08:46:45;;;;;;;22.90;13.83;;;3.30;99.90;;;;;;5053325;28;20445;-57
2023/02/15 08:49:15;;;;;;;20.50;13.90;;;3.40;99.90;;;;;;5044880;28;20185;-58
2023/02/15 08:51:41;;;;;;;21.67;14.23;;;;;;;;;;5053192;28;20421;-57
2023/02/15 08:54:10;;;;;;;22.43;14.83;;;3.40;99.90;;;;;;5053171;28;20225;-57
2023/02/15 08:56:38;;;;;;;19.67;13.80;;;3.40;99.90;;;;;;5052786;28;21008;-55
2023/02/15 08:59:04;;;;;;;24.40;15.07;;;;;;;;;;5035259;28;20178;-58
2023/02/15 09:01:32;;;;;;;24.33;14.57;;;;;;;;;;5052511;28;20195;-55
2023/02/15 09:04:04;;;;;;;21.63;14.17;;;3.20;99.90;;;;;;5053054;28;21031;-57
2023/02/15 09:06:30;;;;;;;20.87;13.87;;;;;;;;;;5052297;28;20546;-58
2023/02/15 09:08:56;;;;;;;21.70;14.50;;;;;;;;;;5052547;28;20410;-58
2023/02/15 09:11:26;;;;;;;20.70;13.50;;;3.60;99.90;;;;;;5052847;28;20203;-58
2023/02/15 09:14:00;;;;;;;23.60;15.53;;;3.80;99.90;;;;;;5052615;28;20206;-57
2023/02/15 09:16:30;;;;;;;31.97;15.97;;;3.80;99.90;;;;;;5052417;28;20189;-58
2023/02/15 09:18:57;;;;;;;22.33;14.73;;;3.90;99.90;;;;;;5052984;28;20186;-58
2023/02/15 09:21:24;;;;;;;23.73;14.80;;;3.90;99.90;;;;;;5052411;28;20278;-57
2023/02/15 09:23:52;;;;;;;23.83;14.90;;;4.10;99.90;;;;;;5052335;28;20234;-56
2023/02/15 09:26:20;;;;;;;24.93;14.53;;;4.20;99.90;;;;;;5052188;28;20179;-56
2023/02/15 09:28:48;;;;;;;22.00;15.07;;;4.20;99.90;;;;;;5052569;28;20601;-56
2023/02/15 09:31:14;;;;;;;24.10;15.60;;;;;;;;;;5052481;28;20242;-58
2023/02/15 09:33:41;;;;;;;22.53;15.60;;;4.30;99.90;;;;;;5052336;28;20183;-57
2023/02/15 09:36:23;;;;;;;24.03;15.33;;;4.10;99.90;;;;;;5052400;28;20206;-57
2023/02/15 09:39:08;;;;;;;24.13;14.53;;;4.10;99.90;;;;;;5052014;28;20213;-58
2023/02/15 09:41:58;;;;;;;21.73;14.67;;;4.10;99.90;;;;;;5051991;28;20620;-57
2023/02/15 09:44:24;;;;;;;24.73;16.00;;;;;;;;;;5051815;28;20708;-58
2023/02/15 09:47:26;;;;;;;22.80;14.63;;;4.20;99.90;;;;;;5051685;28;20246;-57
2023/02/15 09:49:52;;;;;;;23.13;15.37;;;;;;;;;;5051777;28;20174;-59
2023/02/15 09:52:42;;;;;;;19.70;13.67;;;4.20;99.90;;;;;;5051933;28;20270;-57
2023/02/15 09:55:26;;;;;;;30.70;19.67;;;;;;;;;;5052046;28;20183;-57
2023/02/15 09:58:12;;;;;;;23.37;15.47;;;4.20;99.90;;;;;;5051526;28;20187;-59
2023/02/15 10:00:50;;;;;;;27.67;17.53;;;;;;;;;;5052472;28;20293;-59
2023/02/15 10:03:16;;;;;;;24.30;15.87;;;;;;;;;;5051658;28;20290;-56
2023/02/15 10:06:11;;;;;;;25.77;16.63;;;4.10;99.90;;;;;;5051490;28;20263;-59
2023/02/15 10:09:00;;;;;;;28.03;16.10;;;4.20;99.90;;;;;;4970278;28;20250;-57
2023/02/15 10:11:58;;;;;;;22.97;14.77;;;4.10;99.90;;;;;;4975550;28;20244;-57
2023/02/15 10:14:42;;;;;;;21.57;14.53;;;;;;;;;;4950980;29;20202;-57
2023/02/15 10:17:17;;;;;;;23.83;15.83;;;;;;;;;;4951289;29;20276;-60
2023/02/15 10:20:04;;;;;;;23.77;15.50;;;;;;;;;;4950916;29;20213;-57
2023/02/15 10:22:33;;;;;;;25.23;15.37;;;;;;;;;;4950705;28;20310;-60
2023/02/15 10:25:11;;;;;;;25.77;15.23;;;;;;;;;;4950941;29;20272;-52
2023/02/15 10:27:42;;;;;;;24.70;15.37;;;;;;;;;;4932688;29;20187;-55
2023/02/15 10:30:13;;;;;;;26.27;16.57;;;4.30;99.90;;;;;;4931814;29;20722;-58
2023/02/15 10:32:49;;;;;;;28.10;16.67;;;;;;;;;;4931923;29;20195;-57
2023/02/15 10:35:33;;;;;;;28.20;18.03;;;4.30;99.90;;;;;;4932081;29;20710;-58
2023/02/15 10:38:17;;;;;;;26.87;16.30;;;4.30;99.90;;;;;;4931448;29;20274;-58
2023/02/15 10:40:52;;;;;;;29.03;17.53;;;;;;;;;;4931799;29;20195;-57
2023/02/15 10:43:35;;;;;;;30.67;16.80;;;4.40;99.90;;;;;;4931896;29;20206;-57
2023/02/15 10:46:04;;;;;;;28.20;16.50;;;;;;;;;;4964397;28;20201;-56
2023/02/15 10:48:48;;;;;;;27.77;16.50;;;3.80;99.90;;;;;;4989473;28;20176;-57
2023/02/15 10:51:42;;;;;;;25.90;16.43;;;4.00;99.90;;;;;;5020961;28;20241;-56
2023/02/15 10:54:29;;;;;;;24.30;14.97;;;4.20;99.90;;;;;;5050950;28;20266;-55
2023/02/15 10:57:03;;;;;;;28.53;16.57;;;;;;;;;;5051093;28;20562;-60
2023/02/15 10:59:29;;;;;;;25.07;15.60;;;;;;;;;;5051087;28;20647;-60
2023/02/15 11:02:05;;;;;;;25.87;15.43;;;;;;;;;;5045764;28;20206;-57
2023/02/15 11:04:40;;;;;;;24.03;15.00;;;;;;;;;;5050902;28;20277;-56
2023/02/15 11:07:21;;;;;;;25.00;16.83;;;;;;;;;;5051017;28;20170;-57
2023/02/15 11:10:05;;;;;;;26.20;16.60;;;4.70;99.90;;;;;;5051105;28;20236;-55
2023/02/15 11:12:32;;;;;;;26.77;16.67;;;4.50;99.90;;;;;;5051062;28;20172;-58
2023/02/15 11:15:03;;;;;;;24.77;16.33;;;;;;;;;;5051868;28;20179;-54
2023/02/15 11:17:34;;;;;;;26.67;16.17;;;;;;;;;;5056209;28;20218;-56
2023/02/15 11:20:22;;;;;;;28.37;17.20;;;;;;;;;;5034401;28;20175;-56
2023/02/15 11:22:50;;;;;;;28.27;17.20;;;;;;;;;;5039878;28;20692;-57
2023/02/15 11:25:24;;;;;;;26.30;16.40;;;;;;;;;;5050900;28;20203;-56
2023/02/15 11:27:50;;;;;;;27.47;16.20;;;4.80;99.90;;;;;;5050479;28;20186;-59
2023/02/15 11:30:23;;;;;;;29.60;17.43;;;;;;;;;;5050837;28;20272;-57
2023/02/15 11:33:01;;;;;;;27.27;16.67;;;;;;;;;;5050842;28;20183;-58
2023/02/15 11:35:33;;;;;;;28.90;16.77;;;;;;;;;;5054843;28;20569;-56
2023/02/15 11:38:12;;;;;;;26.87;17.43;;;5.10;99.90;;;;;;5053875;28;20191;-57
2023/02/15 11:40:49;;;;;;;32.67;19.63;;;;;;;;;;5054184;28;20616;-60
2023/02/15 11:43:32;;;;;;;25.73;16.63;;;4.80;99.90;;;;;;5066982;28;20323;-57
2023/02/15 11:45:58;;;;;;;28.83;17.07;;;4.80;99.90;;;;;;5074109;28;20213;-55
2023/02/15 11:48:24;;;;;;;29.67;17.87;;;;;;;;;;5074034;28;20182;-57
2023/02/15 11:50:50;;;;;;;24.90;16.03;;;;;;;;;;5074217;28;20229;-58
2023/02/15 11:53:21;;;;;;;27.73;17.13;;;4.90;99.90;;;;;;5063628;28;20202;-59
2023/02/15 11:55:50;;;;;;;28.10;17.23;;;5.00;99.90;;;;;;5061322;28;20182;-57
2023/02/15 11:58:16;;;;;;;26.83;17.47;;;;;;;;;;5059877;28;20312;-59
2023/02/15 12:00:45;;;;;;;25.27;16.37;;;4.90;99.90;;;;;;5060538;28;20373;-56
2023/02/15 12:03:21;;;;;;;33.53;19.73;;;;;;;;;;5034033;28;20180;-58
2023/02/15 12:05:53;;;;;;;26.00;16.23;;;4.90;99.90;;;;;;5029116;28;20175;-57
2023/02/15 12:08:22;;;;;;;26.13;17.07;;;;;;;;;;5053265;28;20190;-59
2023/02/15 12:11:32;;;;;;;27.93;16.23;;;5.00;99.90;;;;;;5036215;28;20253;-54
2023/02/15 12:14:01;;;;;;;27.13;16.70;;;5.80;99.90;;;;;;4972518;28;20389;-57
2023/02/15 12:16:28;;;;;;;31.37;18.07;;;5.00;99.90;;;;;;4979398;28;20205;-56
2023/02/15 12:18:59;;;;;;;29.70;17.03;;;;;;;;;;4972533;28;20186;-56
2023/02/15 12:21:28;;;;;;;27.97;18.03;;;5.20;99.90;;;;;;4972443;28;20640;-57
2023/02/15 12:23:57;;;;;;;26.67;17.07;;;5.10;99.90;;;;;;4974475;28;20210;-57
2023/02/15 12:26:24;;;;;;;29.13;17.70;;;;;;;;;;4956039;28;20182;-57
2023/02/15 12:28:53;;;;;;;26.40;16.80;;;5.80;99.90;;;;;;4972678;28;20206;-58
2023/02/15 12:31:19;;;;;;;24.80;16.10;;;;;;;;;;4972314;28;20342;-56
2023/02/15 12:33:45;;;;;;;24.00;15.60;;;5.50;99.90;;;;;;4972521;28;20186;-57
2023/02/15 12:36:15;;;;;;;21.90;14.87;;;;;;;;;;4972238;28;20186;-57
2023/02/15 12:38:41;;;;;;;25.50;17.23;;;5.70;99.90;;;;;;4972808;28;20201;-54
2023/02/15 12:41:34;;;;;;;25.10;16.90;;;;;;;;;;4988779;28;20221;-58
2023/02/15 12:44:18;;;;;;;22.73;14.87;;;;;;;;;;4968379;28;20213;-56
2023/02/15 12:46:57;;;;;;;23.17;15.27;;;;;;;;;;4975724;28;20208;-59
2023/02/15 12:49:23;;;;;;;23.73;14.70;;;5.50;99.90;;;;;;5053084;28;20201;-57
2023/02/15 12:52:00;;;;;;;24.60;16.27;;;5.40;99.90;;;;;;5053074;28;20219;-57
2023/02/15 12:54:29;;;;;;;22.20;15.20;;;;;;;;;;5052853;28;20179;-54
2023/02/15 12:56:57;;;;;;;23.00;15.23;;;;;;;;;;5052743;28;20175;-56
2023/02/15 12:59:23;;;;;;;22.03;14.63;;;;;;;;;;5052968;28;20171;-57
2023/02/15 13:01:49;;;;;;;21.37;14.60;;;;;;;;;;5052594;28;20206;-55
2023/02/15 13:04:21;;;;;;;29.73;19.63;;;;;;;;;;5052502;28;20353;-60
2023/02/15 13:06:48;;;;;;;21.30;14.40;;;;;;;;;;5052626;28;20221;-57
2023/02/15 13:09:23;;;;;;;26.90;16.63;;;;;;;;;;5052784;28;20246;-54
2023/02/15 13:11:49;;;;;;;20.40;13.63;;;;;;;;;;5052586;28;20277;-54
2023/02/15 13:14:17;;;;;;;33.73;24.73;;;;;;;;;;5052558;28;20183;-55
2023/02/15 13:16:46;;;;;;;55.17;40.87;;;5.50;99.90;;;;;;5051628;28;20268;-53
2023/02/15 13:19:16;;;;;;;26.00;17.87;;;;;;;;;;5052565;28;20187;-57
2023/02/15 13:21:47;;;;;;;18.80;13.53;;;;;;;;;;5034695;28;20199;-56
2023/02/15 13:24:32;;;;;;;19.20;14.17;;;;;;;;;;5064651;28;20210;-55
2023/02/15 13:26:59;;;;;;;20.73;14.43;;;;;;;;;;5072381;28;20522;-59
2023/02/15 13:29:27;;;;;;;18.47;12.60;;;;;;;;;;5072362;28;20171;-57
2023/02/15 13:31:54;;;;;;;19.67;13.07;;;;;;;;;;5059786;28;20617;-59
2023/02/15 13:34:33;;;;;;;20.93;14.17;;;;;;;;;;5052219;28;20207;-56
2023/02/15 13:37:05;;;;;;;20.40;14.13;;;;;;;;;;5051279;28;20198;-57
2023/02/15 13:39:40;;;;;;;19.17;13.20;;;;;;;;;;5052542;28;20705;-56
2023/02/15 13:42:20;;;;;;;20.17;13.33;;;;;;;;;;5051935;28;20213;-57
2023/02/15 13:44:56;;;;;;;21.97;15.60;;;;;;;;;;5063910;28;20198;-57
2023/02/15 13:47:51;;;;;;;18.23;12.73;;;;;;;;;;5071604;28;20177;-58
2023/02/15 13:50:37;;;;;;;20.03;13.27;;;;;;;;;;4990194;28;20228;-59
2023/02/15 13:53:29;;;;;;;19.20;13.13;;;;;;;;;;4990551;28;20531;-57
2023/02/15 13:56:05;;;;;;;19.87;14.33;;;5.20;99.90;;;;;;4931721;29;20269;-57
2023/02/15 13:59:00;;;;;;;19.43;13.27;;;5.30;99.90;;;;;;4931433;29;20266;-57
2023/02/15 14:01:32;;;;;;;19.43;13.90;;;;;;;;;;4931562;29;20222;-59
2023/02/15 14:04:18;;;;;;;18.97;12.60;;;5.10;99.90;;;;;;4931965;29;20750;-59
2023/02/15 14:06:58;;;;;;;17.23;12.20;;;;;;;;;;4931342;29;20595;-59
2023/02/15 14:09:59;;;;;;;21.50;15.13;;;5.50;99.90;;;;;;4932440;29;20301;-60
2023/02/15 14:12:30;;;;;;;18.73;13.30;;;;;;;;;;4932055;29;20230;-56
2023/02/15 14:15:43;;;;;;;17.87;12.53;;;5.00;99.90;;;;;;4932334;29;20246;-57
2023/02/15 14:18:28;;;;;;;19.07;13.47;;;;;;;;;;4875598;29;20994;-54
2023/02/15 14:21:02;;;;;;;18.67;13.53;;;;;;;;;;4875842;29;20219;-56
2023/02/15 14:23:48;;;;;;;18.23;13.23;;;;;;;;;;4874994;29;20245;-57
2023/02/15 14:26:27;;;;;;;19.03;13.30;;;5.20;99.90;;;;;;4887105;29;20188;-55
2023/02/15 14:29:16;;;;;;;19.17;13.07;;;5.50;99.90;;;;;;4915143;29;20215;-60
2023/02/15 14:31:44;;;;;;;18.87;12.83;;;;;;;;;;4933407;28;20214;-57
2023/02/15 14:34:36;;;;;;;17.43;12.77;;;;;;;;;;4973900;28;20185;-56
2023/02/15 14:37:03;;;;;;;16.77;11.70;;;;;;;;;;4987823;28;20193;-57
2023/02/15 14:42:37;;;;;;;19.50;13.00;;;;;;;;;;4988475;28;20664;-57
2023/02/15 14:45:18;;;;;;;20.57;13.30;;;;;;;;;;4989227;28;20572;-57
2023/02/15 14:47:59;;;;;;;22.20;14.43;;;5.50;99.90;;;;;;4989151;28;20767;-58
2023/02/15 14:50:31;;;;;;;20.07;13.07;;;;;;;;;;4974117;28;20642;-59